Time;durP1;ratioP1;P1;durP2;ratioP2;P2;SDS_P1;SDS_P2;PMS_P1;PMS_P2;Temp;Humidity;BMP_temperature;BMP_pressure;BME280_temperature;BME280_humidity;BME280_pressure;Samples;Min_cycle;Max_cycle;Signal;HPM_P1;HPM_P2
2023/12/29 00:01:35;;;;;;;;;;;;;;;12.06;78.10;100175.69;7295185;19;19927;-68
2023/12/29 00:04:02;;;;;;;;;;;;;;;12.06;78.46;100185.41;7301073;19;19914;-65
2023/12/29 00:06:29;;;;;;;;;;;;;;;12.06;78.91;100172.22;7286763;19;20409;-67
2023/12/29 00:08:56;;;;;;;;;;;;;;;12.07;78.94;100161.53;7294188;19;20407;-67
2023/12/29 00:11:23;;;;;;;;;;;;;;;12.06;78.86;100156.41;7293700;19;22473;-69
2023/12/29 00:13:49;;;;;;;;;;;;;;;12.03;78.75;100157.59;7290647;19;19926;-67
2023/12/29 00:16:16;;;;;;;;;;;;;;;12.03;79.58;100168.16;7274980;19;19919;-66
2023/12/29 00:18:43;;;;;;;;;;;;;;;12.00;79.39;100169.31;7296116;19;19967;-70
2023/12/29 00:21:10;;;;;;;;;;;;;;;12.02;80.10;100163.06;7301094;19;19954;-67
2023/12/29 00:23:37;;;;;;;;;;;;;;;12.00;79.70;100169.31;7298444;19;19978;-66
2023/12/29 00:26:04;;;;;;;;;;;;;;;12.02;80.74;100177.06;7285638;19;20478;-66
2023/12/29 00:28:31;;;;;;;;;;;;;;;12.00;81.08;100181.69;7301099;19;20723;-66
2023/12/29 00:30:58;;;;;;;;;;;;;;;12.02;82.30;100170.97;7295234;19;20516;-67
2023/12/29 00:33:29;;;;;;;;;;;;;;;12.04;81.44;100172.41;7291214;19;20616;-67
2023/12/29 00:35:56;;;;;;;;;;;;;;;12.07;81.48;100173.88;7297619;19;20427;-66
2023/12/29 00:38:23;;;;;;;;;;;;;;;12.06;82.04;100173.06;7292053;19;20025;-66
2023/12/29 00:40:50;;;;;;;;;;;;;;;12.06;81.98;100190.69;7306121;19;20320;-68
2023/12/29 00:43:17;;;;;;;;;;;;;;;12.04;81.10;100201.41;7299962;19;19915;-67
2023/12/29 00:45:44;;;;;;;;;;;;;;;12.05;80.89;100192.50;7299290;19;20345;-67
2023/12/29 00:48:11;;;;;;;;;;;;;;;12.04;80.27;100192.72;7289992;19;20813;-67
2023/12/29 00:50:39;;;;;;;;;;;;;;;12.02;79.45;100200.78;7297908;19;20259;-68
2023/12/29 00:53:05;;;;;;;;;;;;;;;12.05;79.97;100186.41;7313165;19;20430;-67
2023/12/29 00:55:32;;;;;;;;;;;;;;;12.04;78.69;100188.22;7311622;19;19959;-68
2023/12/29 00:57:59;;;;;;;;;;;;;;;11.99;78.45;100191.41;7304366;19;20614;-68
2023/12/29 01:00:26;;;;;;;;;;;;;;;11.99;79.43;100204.59;7283674;19;19998;-66
2023/12/29 01:02:53;;;;;;;;;;;;;;;11.97;78.91;100211.03;7296055;19;20348;-67
2023/12/29 01:05:20;;;;;;;;;;;;;;;11.96;78.96;100189.13;7297886;19;19937;-66
2023/12/29 01:07:47;;;;;;;;;;;;;;;11.91;78.11;100191.47;7275824;19;19994;-67
2023/12/29 01:10:14;;;;;;;;;;;;;;;11.91;78.36;100185.38;7308822;19;20095;-68
2023/12/29 01:12:41;;;;;;;;;;;;;;;11.90;79.04;100205.66;7279995;19;19923;-68
2023/12/29 01:15:10;;;;;;;;;;;;;;;11.90;77.90;100195.09;7300231;19;20848;-66
2023/12/29 01:17:41;;;;;;;;;;;;;;;11.90;78.23;100197.75;7286063;19;19918;-67
2023/12/29 01:20:12;;;;;;;;;;;;;;;11.89;78.13;100190.81;7295389;19;19923;-67
2023/12/29 01:22:39;;;;;;;;;;;;;;;11.90;78.46;100183.75;7297883;19;19983;-67
2023/12/29 01:25:06;;;;;;;;;;;;;;;11.84;78.76;100185.25;7298493;19;19918;-68
2023/12/29 01:27:33;;;;;;;;;;;;;;;11.85;78.73;100192.19;7290338;19;19971;-67
2023/12/29 01:30:03;;;;;;;;;;;;;;;11.86;78.98;100191.19;7291817;19;19955;-67
2023/12/29 01:32:30;;;;;;;;;;;;;;;11.84;79.15;100195.81;7287916;19;19938;-66
2023/12/29 01:34:57;;;;;;;;;;;;;;;11.85;79.76;100194.00;7292478;19;19919;-70
2023/12/29 01:37:24;;;;;;;;;;;;;;;11.88;79.99;100173.38;7297175;19;19919;-67
2023/12/29 01:39:51;;;;;;;;;;;;;;;11.89;78.99;100196.09;7299247;19;19919;-68
2023/12/29 01:42:18;;;;;;;;;;;;;;;11.91;78.90;100195.94;7282327;19;20739;-67
2023/12/29 01:44:44;;;;;;;;;;;;;;;11.93;79.81;100186.88;7297974;19;19923;-66
2023/12/29 01:47:15;;;;;;;;;;;;;;;11.98;81.26;100171.31;7290433;19;20319;-68
2023/12/29 01:49:45;;;;;;;;;;;;;;;11.98;80.47;100186.31;7280543;19;19942;-66
2023/12/29 01:52:13;;;;;;;;;;;;;;;11.91;79.68;100170.38;7284246;19;20378;-66
2023/12/29 01:54:42;;;;;;;;;;;;;;;11.93;80.63;100170.22;7296157;19;19946;-68
2023/12/29 01:57:09;;;;;;;;;;;;;;;11.90;81.04;100183.75;7291372;19;19915;-66
2023/12/29 01:59:38;;;;;;;;;;;;;;;11.92;81.18;100182.59;7282227;19;19946;-67
2023/12/29 02:02:04;;;;;;;;;;;;;;;11.93;81.06;100183.41;7296632;19;19923;-66
2023/12/29 02:04:32;;;;;;;;;;;;;;;11.94;81.51;100183.19;7290705;19;20353;-67
2023/12/29 02:06:59;;;;;;;;;;;;;;;11.93;81.83;100167.59;7290958;19;19938;-66
2023/12/29 02:09:27;;;;;;;;;;;;;;;11.93;82.35;100159.69;7302301;19;19926;-68
2023/12/29 02:11:54;;;;;;;;;;;;;;;11.88;81.68;100167.28;7294335;19;20067;-66
2023/12/29 02:14:21;;;;;;;;;;;;;;;11.87;81.68;100182.28;7290581;19;19919;-66
2023/12/29 02:17:07;;;;;;;;;;;;;;;11.88;82.35;100183.94;7303779;19;19919;-66
2023/12/29 02:19:33;;;;;;;;;;;;;;;11.88;82.36;100178.66;7293061;19;21123;-67
2023/12/29 02:22:00;;;;;;;;;;;;;;;11.85;82.82;100165.81;7299325;19;20295;-67
2023/12/29 02:24:27;;;;;;;;;;;;;;;11.82;82.34;100168.81;7293007;19;19930;-67
2023/12/29 02:27:09;;;;;;;;;;;;;;;11.81;82.46;100169.81;7292816;19;20196;-67
2023/12/29 02:29:38;;;;;;;;;;;;;;;11.82;83.09;100170.63;7295496;19;19941;-66
2023/12/29 02:32:06;;;;;;;;;;;;;;;11.84;82.79;100166.00;7287570;19;19923;-66
2023/12/29 02:34:35;;;;;;;;;;;;;;;11.84;82.83;100166.00;7294834;19;20404;-69
2023/12/29 02:37:03;;;;;;;;;;;;;;;11.85;82.73;100172.91;7298965;19;19926;-67
2023/12/29 02:39:30;;;;;;;;;;;;;;;11.86;82.77;100167.47;7299801;19;20003;-68
2023/12/29 02:41:57;;;;;;;;;;;;;;;11.89;82.82;100168.91;7295141;19;20687;-66
2023/12/29 02:44:24;;;;;;;;;;;;;;;11.89;82.18;100163.63;7292424;19;19951;-67
2023/12/29 02:46:51;;;;;;;;;;;;;;;11.89;82.74;100158.38;7290637;19;22485;-66
2023/12/29 02:49:17;;;;;;;;;;;;;;;11.90;82.60;100162.66;7299991;19;19915;-67
2023/12/29 02:51:45;;;;;;;;;;;;;;;11.92;84.03;100152.75;7285091;19;19979;-66
2023/12/29 02:54:12;;;;;;;;;;;;;;;11.91;83.24;100161.66;7297912;19;19923;-68
2023/12/29 02:56:39;;;;;;;;;;;;;;;11.90;82.57;100174.00;7294151;19;19979;-68
2023/12/29 02:59:06;;;;;;;;;;;;;;;11.90;82.75;100155.56;7291683;19;19922;-66
2023/12/29 03:01:33;;;;;;;;;;;;;;;11.95;83.14;100162.94;7301093;19;19929;-67
2023/12/29 03:04:01;;;;;;;;;;;;;;;11.94;83.24;100161.28;7290768;19;21031;-67
2023/12/29 03:06:28;;;;;;;;;;;;;;;11.91;82.98;100146.66;7276505;19;20020;-67
2023/12/29 03:08:55;;;;;;;;;;;;;;;11.92;82.80;100147.47;7288903;19;19918;-67
2023/12/29 03:11:21;;;;;;;;;;;;;;;11.92;83.05;100142.22;7291590;19;19919;-67
2023/12/29 03:13:48;;;;;;;;;;;;;;;11.90;84.00;100145.03;7292227;19;20222;-67
2023/12/29 03:16:15;;;;;;;;;;;;;;;11.92;84.58;100144.84;7280697;19;19927;-68
2023/12/29 03:18:42;;;;;;;;;;;;;;;11.91;83.83;100143.19;7290157;19;19944;-69
2023/12/29 03:21:09;;;;;;;;;;;;;;;11.84;83.06;100143.09;7289411;19;20147;-67
2023/12/29 03:23:36;;;;;;;;;;;;;;;11.85;83.66;100149.19;7300994;19;19923;-67
2023/12/29 03:26:03;;;;;;;;;;;;;;;11.86;83.93;100143.75;7298098;19;20439;-67
2023/12/29 03:28:29;;;;;;;;;;;;;;;11.88;84.20;100139.13;7281025;19;19939;-66
2023/12/29 03:30:56;;;;;;;;;;;;;;;11.89;84.92;100137.28;7284097;19;19931;-66
2023/12/29 03:33:23;;;;;;;;;;;;;;;11.91;84.96;100138.75;7276718;19;19943;-66
2023/12/29 03:35:50;;;;;;;;;;;;;;;11.94;84.83;100143.66;7297802;19;19919;-67
2023/12/29 03:38:17;;;;;;;;;;;;;;;11.94;84.47;100137.56;7298034;19;19915;-66
2023/12/29 03:40:44;;;;;;;;;;;;;;;11.96;85.00;100144.31;7282394;19;20494;-67
2023/12/29 03:43:11;;;;;;;;;;;;;;;11.99;84.91;100140.47;7289889;19;19923;-67
2023/12/29 03:45:39;;;;;;;;;;;;;;;12.03;85.44;100141.78;7311879;19;19929;-66
2023/12/29 03:48:08;;;;;;;;;;;;;;;12.01;85.39;100125.31;7298533;19;20335;-66
2023/12/29 03:50:35;;;;;;;;;;;;;;;12.02;85.02;100126.97;7291141;19;19977;-67
2023/12/29 03:53:02;;;;;;;;;;;;;;;11.99;84.74;100124.66;7298427;19;20002;-67
2023/12/29 03:55:39;;;;;;;;;;;;;;;11.98;86.12;100123.88;7302719;19;20530;-67
2023/12/29 03:58:11;;;;;;;;;;;;;;;11.99;85.44;100119.38;7294233;19;19923;-66
2023/12/29 04:00:41;;;;;;;;;;;;;;;12.02;85.21;100118.22;7304666;19;19939;-67
2023/12/29 04:03:08;;;;;;;;;;;;;;;12.02;86.23;100118.22;7308852;19;20248;-67
2023/12/29 04:05:39;;;;;;;;;;;;;;;12.06;86.48;100120.31;7286782;19;19999;-66
2023/12/29 04:08:06;;;;;;;;;;;;;;;12.04;86.14;100118.88;7294759;19;19919;-67
2023/12/29 04:10:33;;;;;;;;;;;;;;;12.04;85.98;100119.66;7301746;19;20209;-67
2023/12/29 04:13:01;;;;;;;;;;;;;;;12.03;85.69;100110.16;7293690;19;22014;-68
2023/12/29 04:15:27;;;;;;;;;;;;;;;12.07;86.60;100102.69;7298849;19;19919;-66
2023/12/29 04:17:59;;;;;;;;;;;;;;;12.08;86.95;100105.16;7292536;19;20952;-68
2023/12/29 04:20:26;;;;;;;;;;;;;;;12.11;86.76;100110.06;7296576;19;19967;-66
2023/12/29 04:22:53;;;;;;;;;;;;;;;12.13;86.09;100092.25;7299455;19;19937;-66
2023/12/29 04:25:20;;;;;;;;;;;;;;;12.11;85.85;100099.50;7297759;19;20145;-66
2023/12/29 04:27:48;;;;;;;;;;;;;;;12.12;86.42;100089.78;7289250;19;19966;-66
2023/12/29 04:30:17;;;;;;;;;;;;;;;12.13;86.09;100089.59;7293518;19;19998;-67
2023/12/29 04:32:44;;;;;;;;;;;;;;;12.16;86.48;100091.03;7290408;19;20102;-66
2023/12/29 04:35:12;;;;;;;;;;;;;;;12.19;86.79;100093.34;7300357;19;19951;-67
2023/12/29 04:37:39;;;;;;;;;;;;;;;12.21;86.97;100083.41;7290575;19;20046;-66
2023/12/29 04:40:06;;;;;;;;;;;;;;;12.18;86.37;100081.97;7298693;19;20376;-68
2023/12/29 04:42:33;;;;;;;;;;;;;;;12.14;86.59;100085.16;7303311;19;19927;-67
2023/12/29 04:45:00;;;;;;;;;;;;;;;12.13;87.01;100081.69;7291755;19;19926;-66
2023/12/29 04:47:27;;;;;;;;;;;;;;;12.14;87.22;100078.03;7302097;19;19928;-67
2023/12/29 04:49:53;;;;;;;;;;;;;;;12.16;86.82;100083.13;7293527;19;20315;-67
2023/12/29 04:52:21;;;;;;;;;;;;;;;12.13;86.91;100081.69;7294864;19;20684;-66
2023/12/29 04:54:48;;;;;;;;;;;;;;;12.14;87.86;100067.47;7292971;19;20162;-67
2023/12/29 04:57:16;;;;;;;;;;;;;;;12.15;87.76;100070.94;7292844;19;20133;-68
2023/12/29 04:59:43;;;;;;;;;;;;;;;12.14;87.45;100070.13;7299253;19;21015;-68
2023/12/29 05:02:09;;;;;;;;;;;;;;;12.13;86.88;100081.69;7300422;19;19968;-66
2023/12/29 05:04:37;;;;;;;;;;;;;;;12.15;87.70;100077.03;7294108;19;19919;-67
2023/12/29 05:07:05;;;;;;;;;;;;;;;12.16;87.58;100076.03;7286703;19;19963;-67
2023/12/29 05:09:32;;;;;;;;;;;;;;;12.19;88.04;100080.16;7313990;19;20517;-66
2023/12/29 05:11:59;;;;;;;;;;;;;;;12.18;87.23;100076.69;7297726;19;20555;-67
2023/12/29 05:14:26;;;;;;;;;;;;;;;12.21;88.00;100083.41;7303798;19;20732;-67
2023/12/29 05:16:53;;;;;;;;;;;;;;;12.26;87.75;100078.41;7295312;19;20316;-67
2023/12/29 05:19:19;;;;;;;;;;;;;;;12.25;87.61;100079.41;7296623;19;19950;-66
2023/12/29 05:21:49;;;;;;;;;;;;;;;12.27;87.64;100077.41;7293579;19;21305;-66
2023/12/29 05:24:16;;;;;;;;;;;;;;;12.27;88.53;100083.50;7297330;19;21835;-65
2023/12/29 05:26:43;;;;;;;;;;;;;;;12.28;87.63;100077.25;7297078;19;20006;-67
2023/12/29 05:29:10;;;;;;;;;;;;;;;12.31;87.59;100081.31;7294998;19;20618;-67
2023/12/29 05:31:37;;;;;;;;;;;;;;;12.34;87.48;100078.34;7306496;19;20398;-67
2023/12/29 05:34:03;;;;;;;;;;;;;;;12.33;87.19;100085.44;7290563;19;19950;-67
2023/12/29 05:36:35;;;;;;;;;;;;;;;12.32;87.09;100085.59;7280990;19;20272;-67
2023/12/29 05:39:03;;;;;;;;;;;;;;;12.33;87.53;100090.69;7283173;19;19938;-67
2023/12/29 05:41:30;;;;;;;;;;;;;;;12.32;86.97;100083.78;7300836;19;19998;-67
2023/12/29 05:44:01;;;;;;;;;;;;;;;12.32;87.07;100093.50;7299033;19;19982;-67
2023/12/29 05:46:27;;;;;;;;;;;;;;;12.29;87.03;100093.88;7290401;19;19950;-67
2023/12/29 05:48:54;;;;;;;;;;;;;;;12.27;86.56;100090.59;7293837;19;20609;-66
2023/12/29 05:51:22;;;;;;;;;;;;;;;12.24;86.90;100091.78;7298627;19;20387;-68
2023/12/29 05:53:48;;;;;;;;;;;;;;;12.23;87.24;100089.34;7289325;19;19925;-66
2023/12/29 05:56:15;;;;;;;;;;;;;;;12.24;88.06;100106.81;7305942;19;19929;-68
2023/12/29 05:58:43;;;;;;;;;;;;;;;12.22;87.48;100112.25;7300470;19;19922;-68
2023/12/29 06:01:16;;;;;;;;;;;;;;;12.19;87.54;100112.59;7287285;19;20320;-68
2023/12/29 06:03:43;;;;;;;;;;;;;;;12.19;88.33;100109.97;7299891;19;19938;-67
2023/12/29 06:06:10;;;;;;;;;;;;;;;12.16;87.70;100107.69;7294092;19;22375;-66
2023/12/29 06:08:36;;;;;;;;;;;;;;;12.15;88.04;100111.31;7312347;19;20197;-67
2023/12/29 06:11:03;;;;;;;;;;;;;;;12.15;88.32;100107.88;7297768;19;19939;-67
2023/12/29 06:13:30;;;;;;;;;;;;;;;12.14;89.10;100116.81;7291366;19;19933;-66
2023/12/29 06:15:57;;;;;;;;;;;;;;;12.14;88.72;100109.69;7298168;19;19926;-66
2023/12/29 06:18:24;;;;;;;;;;;;;;;12.11;87.36;100115.31;7292272;19;19960;-66
2023/12/29 06:20:51;;;;;;;;;;;;;;;12.09;87.69;100111.25;7296210;19;19919;-68
2023/12/29 06:23:18;;;;;;;;;;;;;;;12.06;87.88;100111.59;7290532;19;20316;-67
2023/12/29 06:25:45;;;;;;;;;;;;;;;12.02;85.84;100129.59;7301104;19;20815;-68
2023/12/29 06:28:12;;;;;;;;;;;;;;;11.99;85.72;100133.41;7317571;19;20147;-66
2023/12/29 06:30:39;;;;;;;;;;;;;;;11.99;86.22;100124.66;7314628;19;19986;-67
2023/12/29 06:33:06;;;;;;;;;;;;;;;11.99;86.32;100135.22;7317111;19;20646;-66
2023/12/29 06:35:33;;;;;;;;;;;;;;;11.98;85.98;100138.88;7317455;19;19947;-67
2023/12/29 06:38:00;;;;;;;;;;;;;;;11.97;85.71;100148.59;7314827;19;20715;-66
2023/12/29 06:40:27;;;;;;;;;;;;;;;11.98;85.64;100152.88;7310644;19;20596;-66
2023/12/29 06:42:54;;;;;;;;;;;;;;;11.97;85.76;100147.78;7315570;19;20181;-67
2023/12/29 06:45:21;;;;;;;;;;;;;;;11.96;85.25;100148.75;7311987;19;20348;-66
2023/12/29 06:47:48;;;;;;;;;;;;;;;11.95;85.77;100149.75;7283144;19;19923;-68
2023/12/29 06:50:16;;;;;;;;;;;;;;;11.94;85.40;100146.28;7305913;19;20316;-67
2023/12/29 06:52:43;;;;;;;;;;;;;;;11.95;85.69;100162.94;7295592;19;20218;-67
2023/12/29 06:55:10;;;;;;;;;;;;;;;11.96;85.71;100146.94;7292276;19;20560;-67
2023/12/29 06:57:37;;;;;;;;;;;;;;;11.99;86.92;100164.22;7312840;19;20394;-68
2023/12/29 07:00:04;;;;;;;;;;;;;;;11.98;86.02;100159.97;7308855;19;19918;-67
2023/12/29 07:02:31;;;;;;;;;;;;;;;11.95;85.62;100158.47;7299206;19;19929;-67
2023/12/29 07:04:57;;;;;;;;;;;;;;;11.93;85.66;100167.59;7305333;19;19915;-66
2023/12/29 07:07:25;;;;;;;;;;;;;;;11.92;86.35;100168.56;7311680;19;19943;-68
2023/12/29 07:09:52;;;;;;;;;;;;;;;11.93;86.19;100178.13;7313996;19;20290;-68
2023/12/29 07:12:18;;;;;;;;;;;;;;;11.96;86.38;100185.66;7291396;19;20410;-67
2023/12/29 07:14:45;;;;;;;;;;;;;;;11.99;85.83;100183.50;7293799;19;22507;-66
2023/12/29 07:17:12;;;;;;;;;;;;;;;11.98;85.89;100173.97;7302411;19;20269;-67
2023/12/29 07:19:39;;;;;;;;;;;;;;;11.99;85.77;100180.84;7300813;19;20506;-67
2023/12/29 07:22:07;;;;;;;;;;;;;;;11.98;85.44;100173.13;7301961;19;20243;-67
2023/12/29 07:24:38;;;;;;;;;;;;;;;11.99;86.54;100169.47;7288717;19;20732;-67
2023/12/29 07:27:05;;;;;;;;;;;;;;;11.97;86.70;100179.41;7287716;19;19962;-67
2023/12/29 07:29:33;;;;;;;;;;;;;;;11.97;86.89;100182.03;7291761;19;19927;-67
2023/12/29 07:32:00;;;;;;;;;;;;;;;11.98;86.41;100191.59;7290650;19;19978;-67
2023/12/29 07:34:27;;;;;;;;;;;;;;;11.96;86.43;100180.41;7288758;19;19923;-67
2023/12/29 07:36:58;;;;;;;;;;;;;;;11.96;86.81;100188.31;7297512;19;20372;-67
2023/12/29 07:39:25;;;;;;;;;;;;;;;11.93;87.47;100184.22;7311658;19;19998;-68
2023/12/29 07:41:53;;;;;;;;;;;;;;;11.92;87.81;100187.84;7279883;19;20305;-67
2023/12/29 07:44:20;;;;;;;;;;;;;;;11.91;88.58;100177.47;7289236;19;20530;-67
2023/12/29 07:46:47;;;;;;;;;;;;;;;11.88;88.27;100177.84;7288427;19;21653;-66
2023/12/29 07:49:14;;;;;;;;;;;;;;;11.88;88.11;100178.66;7289290;19;20638;-67
2023/12/29 07:51:43;;;;;;;;;;;;;;;11.86;88.24;100179.81;7302057;19;19918;-67
2023/12/29 07:54:10;;;;;;;;;;;;;;;11.88;89.09;100170.75;7284574;19;19923;-67
2023/12/29 07:56:37;;;;;;;;;;;;;;;11.89;89.47;100179.47;7287821;19;19915;-67
2023/12/29 07:59:04;;;;;;;;;;;;;;;11.92;89.62;100171.22;7301192;19;21158;-66
2023/12/29 08:01:31;;;;;;;;;;;;;;;11.94;89.21;100177.94;7311822;19;20520;-67
2023/12/29 08:03:58;;;;;;;;;;;;;;;11.96;88.63;100168.03;7316573;19;20751;-67
2023/12/29 08:06:25;;;;;;;;;;;;;;;11.99;89.17;100178.22;7306082;19;19962;-66
2023/12/29 08:08:54;;;;;;;;;;;;;;;11.99;87.89;100178.22;7296886;19;20305;-66
2023/12/29 08:11:21;;;;;;;;;;;;;;;11.98;87.24;100170.50;7290971;19;19995;-67
2023/12/29 08:13:49;;;;;;;;;;;;;;;12.01;87.26;100183.31;7291937;19;21649;-67
2023/12/29 08:16:19;;;;;;;;;;;;;;;12.02;87.35;100192.88;7306007;19;19930;-67
2023/12/29 08:18:47;;;;;;;;;;;;;;;12.01;87.18;100188.59;7303102;19;20842;-66
2023/12/29 08:21:20;;;;;;;;;;;;;;;12.02;87.07;100184.16;7299168;19;19918;-68
2023/12/29 08:23:48;;;;;;;;;;;;;;;12.04;86.36;100187.44;7306900;19;19919;-66
2023/12/29 08:26:15;;;;;;;;;;;;;;;12.05;87.15;100196.97;7303903;19;19933;-69
2023/12/29 08:28:42;;;;;;;;;;;;;;;12.08;86.51;100191.34;7297823;19;19921;-67
2023/12/29 08:31:09;;;;;;;;;;;;;;;12.11;87.36;100188.34;7308178;19;20211;-66
2023/12/29 08:33:36;;;;;;;;;;;;;;;12.10;86.42;100200.72;7287889;19;19919;-67
2023/12/29 08:36:04;;;;;;;;;;;;;;;12.09;85.77;100201.69;7313239;19;19914;-68
2023/12/29 08:38:34;;;;;;;;;;;;;;;12.07;85.55;100206.34;7291721;19;19923;-68
2023/12/29 08:41:01;;;;;;;;;;;;;;;12.09;85.46;100206.97;7295169;19;20011;-66
2023/12/29 08:43:28;;;;;;;;;;;;;;;12.10;85.52;100215.69;7281857;19;19923;-68
2023/12/29 08:46:00;;;;;;;;;;;;;;;12.13;87.00;100212.72;7295728;19;19959;-67
2023/12/29 08:48:28;;;;;;;;;;;;;;;12.16;85.42;100218.47;7289373;19;19919;-67
2023/12/29 08:50:56;;;;;;;;;;;;;;;12.16;85.18;100212.38;7284616;19;22225;-68
2023/12/29 08:53:23;;;;;;;;;;;;;;;12.16;85.19;100204.44;7307214;19;19941;-67
2023/12/29 08:55:50;;;;;;;;;;;;;;;12.15;85.78;100208.06;7297805;19;20312;-68
2023/12/29 08:58:18;;;;;;;;;;;;;;;12.11;85.04;100206.81;7295120;19;19926;-68
2023/12/29 09:00:45;;;;;;;;;;;;;;;12.09;84.79;100212.25;7298980;19;20826;-67
2023/12/29 09:03:12;;;;;;;;;;;;;;;12.08;85.40;100209.81;7280882;19;19963;-67
2023/12/29 09:05:39;;;;;;;;;;;;;;;12.10;85.57;100215.69;7281075;19;19943;-67
2023/12/29 09:08:08;;;;;;;;;;;;;;;12.11;85.12;100220.00;7282218;19;19929;-67
2023/12/29 09:10:36;;;;;;;;;;;;;;;12.10;85.26;100226.25;7290056;19;19933;-67
2023/12/29 09:13:09;;;;;;;;;;;;;;;12.10;85.33;100229.72;7311294;19;21459;-68
2023/12/29 09:15:38;;;;;;;;;;;;;;;12.13;85.79;100239.94;7297692;19;20104;-67
2023/12/29 09:18:10;;;;;;;;;;;;;;;12.15;86.49;100240.56;7288416;19;20017;-67
2023/12/29 09:20:39;;;;;;;;;;;;;;;12.15;85.51;100240.56;7298866;19;20641;-66
2023/12/29 09:23:06;;;;;;;;;;;;;;;12.13;85.23;100234.66;7297482;19;20180;-67
2023/12/29 09:25:35;;;;;;;;;;;;;;;12.14;85.26;100238.09;7312718;19;20707;-67
2023/12/29 09:28:10;;;;;;;;;;;;;;;12.15;85.23;100252.91;7293904;19;20518;-67
2023/12/29 09:30:38;;;;;;;;;;;;;;;12.17;84.99;100248.28;7298658;19;20039;-67
2023/12/29 09:33:06;;;;;;;;;;;;;;;12.20;86.22;100240.00;7292282;19;20384;-66
2023/12/29 09:35:35;;;;;;;;;;;;;;;12.20;86.28;100251.38;7305393;19;19942;-67
2023/12/29 09:38:04;;;;;;;;;;;;;;;12.18;85.70;100253.41;7316424;19;19919;-67
2023/12/29 09:40:35;;;;;;;;;;;;;;;12.17;85.93;100246.47;7290514;19;19919;-67
2023/12/29 09:43:04;;;;;;;;;;;;;;;12.19;86.54;100247.09;7295217;19;20604;-67
2023/12/29 09:45:34;;;;;;;;;;;;;;;12.21;86.27;100260.94;7285385;19;20152;-67
2023/12/29 09:48:08;;;;;;;;;;;;;;;12.24;86.38;100251.88;7295667;19;19937;-67
2023/12/29 09:50:39;;;;;;;;;;;;;;;12.25;86.70;100248.22;7305677;19;19955;-66
2023/12/29 09:53:10;;;;;;;;;;;;;;;12.24;86.39;100251.88;7293561;19;20600;-66
2023/12/29 09:55:46;;;;;;;;;;;;;;;12.28;86.34;100247.88;7291421;19;20368;-66
2023/12/29 09:58:15;;;;;;;;;;;;;;;12.32;87.00;100246.50;7288738;19;20014;-67
2023/12/29 10:00:42;;;;;;;;;;;;;;;12.29;86.40;100246.88;7300073;19;19943;-68
2023/12/29 10:03:10;;;;;;;;;;;;;;;12.26;85.48;100260.41;7295386;19;19946;-68
2023/12/29 10:05:38;;;;;;;;;;;;;;;12.23;85.44;100263.41;7295956;19;20246;-67
2023/12/29 10:08:10;;;;;;;;;;;;;;;12.22;85.75;100256.50;7278801;19;19945;-66
2023/12/29 10:10:39;;;;;;;;;;;;;;;12.21;86.00;100254.84;7291064;19;20376;-67
2023/12/29 10:13:09;;;;;;;;;;;;;;;12.26;86.28;100245.41;7289117;19;19919;-67
2023/12/29 10:15:40;;;;;;;;;;;;;;;12.31;86.24;100255.41;7302146;19;20592;-67
2023/12/29 10:18:31;;;;;;;;;;;;;;;12.35;86.34;100260.16;7296924;19;19915;-67
2023/12/29 10:21:02;;;;;;;;;;;;;;;12.43;86.33;100256.66;7296632;19;19931;-67
2023/12/29 10:23:39;;;;;;;;;;;;;;;12.48;85.97;100264.03;7295241;19;20497;-67
2023/12/29 10:26:07;;;;;;;;;;;;;;;12.48;85.75;100274.56;7314129;19;19943;-67
2023/12/29 10:28:34;;;;;;;;;;;;;;;12.53;86.14;100278.31;7317239;19;19959;-68
2023/12/29 10:31:05;;;;;;;;;;;;;;;12.55;85.97;100268.38;7296707;19;21448;-67
2023/12/29 10:33:34;;;;;;;;;;;;;;;12.60;85.97;100273.94;7297448;19;19926;-67
2023/12/29 10:36:07;;;;;;;;;;;;;;;12.62;85.91;100269.31;7300099;19;21007;-68
2023/12/29 10:38:39;;;;;;;;;;;;;;;12.67;86.12;100258.22;7286565;19;19974;-67
2023/12/29 10:41:16;;;;;;;;;;;;;;;12.72;85.57;100263.78;7309382;19;20013;-67
2023/12/29 10:43:47;;;;;;;;;;;;;;;12.71;84.88;100248.94;7291723;19;20618;-67
2023/12/29 10:46:15;;;;;;;;;;;;;;;12.71;85.28;100244.47;7296139;19;19923;-66
2023/12/29 10:48:48;;;;;;;;;;;;;;;12.72;86.19;100243.47;7303261;19;20296;-67
2023/12/29 10:51:30;;;;;;;;;;;;;;;12.76;86.25;100242.13;7295703;19;19925;-67
2023/12/29 10:53:58;;;;;;;;;;;;;;;12.80;85.81;100234.63;7292482;19;20683;-67
2023/12/29 10:56:26;;;;;;;;;;;;;;;12.85;86.48;100229.63;7278710;19;20017;-67
2023/12/29 10:59:03;;;;;;;;;;;;;;;12.89;86.33;100220.38;7301767;19;20237;-67
2023/12/29 11:01:32;;;;;;;;;;;;;;;12.92;87.47;100220.00;7296224;19;20394;-67
2023/12/29 11:04:04;;;;;;;;;;;;;;;12.98;87.22;100229.00;7296732;19;20605;-66
2023/12/29 11:06:40;;;;;;;;;;;;;;;12.99;86.68;100220.09;7285837;19;21314;-66
2023/12/29 11:09:07;;;;;;;;;;;;;;;13.00;86.67;100212.00;7291594;19;20307;-66
2023/12/29 11:11:36;;;;;;;;;;;;;;;13.00;86.52;100206.72;7290179;19;19919;-67
2023/12/29 11:14:04;;;;;;;;;;;;;;;13.00;86.82;100201.44;7290947;19;20417;-66
2023/12/29 11:16:32;;;;;;;;;;;;;;;12.99;86.30;100169.91;7304786;19;19930;-66
2023/12/29 11:19:03;;;;;;;;;;;;;;;12.98;86.20;100166.44;7307331;19;20727;-67
2023/12/29 11:21:37;;;;;;;;;;;;;;;12.91;86.25;100162.06;7287699;19;19919;-68
2023/12/29 11:24:06;;;;;;;;;;;;;;;12.96;86.48;100165.81;7296445;19;19919;-67
2023/12/29 11:26:34;;;;;;;;;;;;;;;12.98;86.31;100161.16;7289360;19;19975;-67
2023/12/29 11:29:01;;;;;;;;;;;;;;;13.04;87.43;100171.00;7290074;19;19941;-66
2023/12/29 11:31:28;;;;;;;;;;;;;;;13.09;86.92;100162.50;7299528;19;19930;-67
2023/12/29 11:34:08;;;;;;;;;;;;;;;13.11;86.00;100152.56;7302010;19;19914;-66
2023/12/29 11:36:40;;;;;;;;;;;;;;;13.11;85.75;100152.56;7307730;19;21805;-67
2023/12/29 11:39:20;;;;;;;;;;;;;;;13.15;86.95;100146.78;7294111;19;19933;-66
2023/12/29 11:41:51;;;;;;;;;;;;;;;13.14;85.64;100149.59;7287442;19;19918;-67
2023/12/29 11:44:36;;;;;;;;;;;;;;;13.17;85.36;100151.84;7276162;19;20671;-66
2023/12/29 11:47:26;;;;;;;;;;;;;;;13.17;85.60;100155.31;7280383;19;19918;-66
2023/12/29 11:49:59;;;;;;;;;;;;;;;13.16;85.68;100161.59;7276934;19;19926;-66
2023/12/29 11:52:36;;;;;;;;;;;;;;;13.18;85.94;100166.72;7276410;19;20915;-67
2023/12/29 11:55:11;;;;;;;;;;;;;;;13.16;84.87;100158.13;7289480;19;19915;-66
2023/12/29 11:57:44;;;;;;;;;;;;;;;13.13;83.98;100164.63;7287391;19;20351;-65
2023/12/29 12:00:13;;;;;;;;;;;;;;;13.11;84.18;100161.34;7291016;19;19922;-65
2023/12/29 12:02:41;;;;;;;;;;;;;;;13.10;83.37;100166.81;7301140;19;21496;-66
2023/12/29 12:05:10;;;;;;;;;;;;;;;13.10;84.38;100164.97;7297189;19;19944;-66
2023/12/29 12:07:50;;;;;;;;;;;;;;;13.11;83.68;100161.34;7285755;19;19926;-66
2023/12/29 12:10:21;;;;;;;;;;;;;;;13.09;82.34;100155.41;7304226;19;19986;-67
2023/12/29 12:12:51;;;;;;;;;;;;;;;13.14;82.81;100158.34;7297902;19;19978;-67
2023/12/29 12:15:31;;;;;;;;;;;;;;;13.17;81.73;100160.59;7284555;19;20006;-67
2023/12/29 12:18:07;;;;;;;;;;;;;;;13.16;80.58;100158.97;7290469;19;19931;-67
2023/12/29 12:20:36;;;;;;;;;;;;;;;13.16;81.30;100166.88;7295842;19;20017;-67
2023/12/29 12:23:21;;;;;;;;;;;;;;;13.17;81.17;100165.88;7287486;19;19934;-66
2023/12/29 12:25:51;;;;;;;;;;;;;;;13.12;80.47;100173.56;7303819;19;19938;-67
2023/12/29 12:28:20;;;;;;;;;;;;;;;13.14;79.55;100168.91;7300454;19;20603;-67
2023/12/29 12:30:50;;;;;;;;;;;;;;;13.14;79.23;100166.28;7307299;19;20534;-66
2023/12/29 12:33:18;;;;;;;;;;;;;;;13.22;81.24;100160.88;7304306;19;20360;-67
2023/12/29 12:35:58;;;;;;;;;;;;;;;13.22;79.47;100157.41;7297744;19;19915;-66
2023/12/29 12:38:30;;;;;;;;;;;;;;;13.20;78.55;100140.94;7298451;19;20329;-67
2023/12/29 12:41:19;;;;;;;;;;;;;;;13.18;77.84;100121.81;7300825;19;21696;-67
2023/12/29 12:43:53;;;;;;;;;;;;;;;13.20;78.99;100109.25;7290618;19;19926;-67